Time;durP1;ratioP1;P1;durP2;ratioP2;P2;SDS_P1;SDS_P2;PMS_P1;PMS_P2;Temp;Humidity;BMP_temperature;BMP_pressure;BME280_temperature;BME280_humidity;BME280_pressure;Samples;Min_cycle;Max_cycle;Signal;HPM_P1;HPM_P2
2023/08/19 00:01:04;;;;;;;3.00;2.53;;;23.70;1.00;;;;;;5093124;28;20556;-72
2023/08/19 00:03:32;;;;;;;2.80;2.60;;;23.70;1.00;;;;;;5093950;28;20442;-72
2023/08/19 00:06:10;;;;;;;4.10;3.30;;;23.70;1.00;;;;;;5094217;28;20474;-71
2023/08/19 00:08:36;;;;;;;4.83;3.23;;;23.60;1.00;;;;;;5094067;28;20419;-71
2023/08/19 00:11:03;;;;;;;4.90;3.03;;;23.60;1.00;;;;;;5093953;28;20435;-71
2023/08/19 00:13:30;;;;;;;3.30;2.97;;;23.70;1.00;;;;;;5093606;28;20439;-71
2023/08/19 00:15:55;;;;;;;4.40;4.00;;;23.70;1.00;;;;;;5093972;28;20413;-71
2023/08/19 00:18:21;;;;;;;3.30;3.00;;;23.80;1.00;;;;;;5093979;28;20419;-72
2023/08/19 00:20:49;;;;;;;3.07;2.77;;;23.80;1.00;;;;;;5093839;28;20477;-71
2023/08/19 00:23:16;;;;;;;4.30;3.17;;;23.90;1.00;;;;;;5093509;28;20208;-72
2023/08/19 00:25:42;;;;;;;4.63;3.20;;;23.90;1.00;;;;;;5093723;28;20451;-72
2023/08/19 00:28:07;;;;;;;3.20;2.90;;;23.90;1.00;;;;;;5093598;28;20556;-72
2023/08/19 00:30:33;;;;;;;3.93;3.53;;;23.90;1.00;;;;;;5093787;28;20415;-72
2023/08/19 00:32:59;;;;;;;3.20;2.80;;;23.90;1.00;;;;;;5093281;28;20232;-72
2023/08/19 00:35:25;;;;;;;4.40;4.00;;;23.90;1.00;;;;;;5093760;28;20188;-71
2023/08/19 00:37:50;;;;;;;3.40;3.10;;;23.90;1.00;;;;;;5093694;28;20427;-72
2023/08/19 00:40:16;;;;;;;4.90;3.10;;;23.90;1.00;;;;;;5093383;28;20193;-70
2023/08/19 00:42:42;;;;;;;4.03;3.43;;;23.80;1.00;;;;;;5092952;28;20209;-71
2023/08/19 00:45:09;;;;;;;3.70;3.00;;;23.80;1.00;;;;;;5093208;28;20208;-71
2023/08/19 00:47:36;;;;;;;3.97;3.67;;;23.80;1.00;;;;;;5093468;28;20421;-71
2023/08/19 00:50:05;;;;;;;4.60;3.17;;;23.80;1.00;;;;;;5093312;28;20430;-71
2023/08/19 00:52:30;;;;;;;4.97;2.87;;;23.90;1.00;;;;;;5093012;28;20958;-73
2023/08/19 00:54:56;;;;;;;3.50;3.03;;;24.00;1.00;;;;;;5094149;28;20415;-72
2023/08/19 00:57:23;;;;;;;3.87;3.47;;;24.00;1.00;;;;;;5093938;28;20178;-71
2023/08/19 00:59:48;;;;;;;5.63;3.77;;;24.00;1.00;;;;;;5093318;28;20730;-71
2023/08/19 01:02:14;;;;;;;7.00;3.47;;;24.00;1.00;;;;;;5092834;28;20518;-71
2023/08/19 01:04:39;;;;;;;4.13;3.50;;;24.00;1.00;;;;;;5093398;28;20204;-71
2023/08/19 01:07:24;;;;;;;3.17;2.87;;;24.10;1.00;;;;;;5093907;28;20655;-71
2023/08/19 01:10:03;;;;;;;3.73;3.43;;;24.00;1.00;;;;;;5093501;28;20529;-71
2023/08/19 01:12:44;;;;;;;3.40;2.80;;;24.10;1.00;;;;;;5093280;28;20447;-71
2023/08/19 01:15:21;;;;;;;3.07;2.77;;;24.00;1.00;;;;;;5073063;28;20766;-71
2023/08/19 01:17:49;;;;;;;3.20;2.90;;;24.00;1.00;;;;;;5073232;28;20427;-71
2023/08/19 01:20:16;;;;;;;4.73;3.40;;;23.90;1.00;;;;;;5072865;28;20412;-71
2023/08/19 01:22:55;;;;;;;3.63;3.23;;;23.80;1.00;;;;;;5072620;28;20436;-71
2023/08/19 01:25:22;;;;;;;3.50;3.20;;;23.70;1.00;;;;;;5077834;28;20469;-71
2023/08/19 01:27:47;;;;;;;5.87;3.13;;;23.70;1.00;;;;;;5092723;28;20434;-71
2023/08/19 01:30:14;;;;;;;3.63;3.07;;;23.60;1.00;;;;;;5092984;28;20407;-71
2023/08/19 01:32:41;;;;;;;3.73;3.30;;;23.50;2.30;;;;;;5092748;28;20560;-71
2023/08/19 01:35:07;;;;;;;5.00;3.37;;;23.40;2.90;;;;;;5092912;28;20407;-71
2023/08/19 01:37:52;;;;;;;3.30;2.60;;;23.30;3.30;;;;;;5092687;28;20450;-71
2023/08/19 01:40:19;;;;;;;4.00;3.23;;;23.00;5.00;;;;;;5092787;28;20817;-71
2023/08/19 01:42:45;;;;;;;4.33;2.90;;;22.90;5.00;;;;;;5092840;28;20977;-71
2023/08/19 01:45:14;;;;;;;4.30;3.13;;;22.70;6.30;;;;;;5092292;28;20446;-71
2023/08/19 01:47:42;;;;;;;4.40;2.80;;;22.60;6.90;;;;;;5092683;28;20419;-71
2023/08/19 01:50:08;;;;;;;5.20;3.20;;;22.40;7.80;;;;;;5092135;28;20423;-71
2023/08/19 01:52:34;;;;;;;4.77;2.20;;;22.20;8.60;;;;;;5092016;28;20439;-71
2023/08/19 01:55:00;;;;;;;3.07;2.73;;;22.20;9.10;;;;;;5092316;28;20547;-70
2023/08/19 01:57:27;;;;;;;4.17;2.77;;;22.00;10.40;;;;;;5092391;28;20416;-71
2023/08/19 01:59:54;;;;;;;8.87;3.20;;;21.90;11.40;;;;;;5092134;28;20176;-70
2023/08/19 02:02:20;;;;;;;4.10;2.53;;;21.80;11.70;;;;;;5091708;28;20477;-71
2023/08/19 02:04:46;;;;;;;7.23;2.57;;;21.60;13.20;;;;;;5092049;28;20980;-71
2023/08/19 02:07:11;;;;;;;4.50;2.90;;;21.50;13.40;;;;;;5074035;28;20509;-70
2023/08/19 02:09:38;;;;;;;4.83;2.70;;;21.40;13.80;;;;;;5092227;28;20224;-70
2023/08/19 02:12:04;;;;;;;5.00;3.30;;;21.40;14.30;;;;;;5091604;28;20545;-71
2023/08/19 02:14:29;;;;;;;5.57;2.90;;;21.40;14.20;;;;;;5091822;28;20441;-71
2023/08/19 02:16:55;;;;;;;3.47;2.73;;;21.30;14.60;;;;;;5092357;28;20420;-70
2023/08/19 02:19:20;;;;;;;5.07;2.03;;;21.10;15.20;;;;;;5091934;28;20677;-71
2023/08/19 02:21:46;;;;;;;2.83;2.40;;;21.10;15.70;;;;;;5091812;28;20646;-71
2023/08/19 02:24:11;;;;;;;5.50;2.57;;;21.00;16.10;;;;;;5093455;28;20608;-71
2023/08/19 02:26:37;;;;;;;4.00;2.60;;;21.00;16.50;;;;;;5095585;28;20214;-71
2023/08/19 02:29:03;;;;;;;3.63;3.10;;;21.00;16.60;;;;;;5095570;28;20229;-70
2023/08/19 02:31:28;;;;;;;3.13;2.60;;;20.90;16.20;;;;;;5095870;28;20607;-71
2023/08/19 02:33:54;;;;;;;2.83;2.20;;;20.80;16.40;;;;;;5095910;28;20272;-70
2023/08/19 02:36:19;;;;;;;5.50;2.47;;;20.70;18.10;;;;;;5096146;28;20180;-71
2023/08/19 02:38:45;;;;;;;5.70;2.83;;;20.60;19.10;;;;;;5095718;28;20730;-70
2023/08/19 02:41:10;;;;;;;5.47;2.83;;;20.50;20.40;;;;;;5095618;28;20256;-71
2023/08/19 02:43:36;;;;;;;2.97;2.60;;;20.50;21.30;;;;;;5095505;28;20300;-71
2023/08/19 02:46:02;;;;;;;3.30;2.87;;;20.40;22.10;;;;;;5096251;28;20219;-71
2023/08/19 02:48:28;;;;;;;5.50;3.77;;;20.30;22.60;;;;;;5096107;28;20585;-71
2023/08/19 02:50:54;;;;;;;7.90;4.50;;;20.30;23.70;;;;;;5095920;28;20422;-71
2023/08/19 02:53:20;;;;;;;6.30;3.60;;;20.30;23.70;;;;;;5095510;28;20423;-71
2023/08/19 02:55:45;;;;;;;3.90;3.00;;;20.10;24.20;;;;;;5097067;28;20403;-71
2023/08/19 02:58:14;;;;;;;7.80;3.40;;;20.00;25.20;;;;;;5096401;28;20185;-71
2023/08/19 03:00:40;;;;;;;6.90;4.07;;;20.00;25.20;;;;;;5096502;28;20169;-71
2023/08/19 03:03:06;;;;;;;6.17;3.93;;;19.90;26.10;;;;;;5095958;28;20439;-71
2023/08/19 03:05:39;;;;;;;9.33;3.07;;;19.90;26.80;;;;;;5096524;28;20455;-71
2023/08/19 03:08:05;;;;;;;4.17;3.20;;;19.70;28.20;;;;;;5096506;28;20433;-71
2023/08/19 03:10:39;;;;;;;3.10;2.80;;;19.70;28.30;;;;;;5096317;28;20430;-71
2023/08/19 03:13:05;;;;;;;5.40;2.60;;;19.70;29.30;;;;;;5095879;28;20446;-71
2023/08/19 03:15:32;;;;;;;5.73;3.80;;;19.60;29.20;;;;;;5096207;28;20473;-71
2023/08/19 03:17:58;;;;;;;5.20;3.07;;;19.60;29.20;;;;;;5096342;28;20411;-71
2023/08/19 03:20:24;;;;;;;9.67;3.37;;;19.50;29.70;;;;;;5096242;28;20487;-71
2023/08/19 03:22:50;;;;;;;6.70;4.20;;;19.40;31.70;;;;;;5096140;28;20201;-71
2023/08/19 03:25:15;;;;;;;4.07;3.10;;;19.40;31.90;;;;;;5095789;28;20534;-71
2023/08/19 03:27:41;;;;;;;4.23;3.10;;;19.40;32.00;;;;;;5096502;28;20177;-71
2023/08/19 03:30:07;;;;;;;6.50;4.10;;;19.40;32.30;;;;;;5096858;28;20173;-71
2023/08/19 03:32:33;;;;;;;4.83;4.00;;;19.30;32.50;;;;;;5096376;28;20221;-71
2023/08/19 03:34:58;;;;;;;6.40;3.63;;;19.40;33.20;;;;;;5096994;28;20443;-71
2023/08/19 03:37:24;;;;;;;9.57;4.70;;;19.30;32.40;;;;;;5096830;28;20451;-71
2023/08/19 03:39:50;;;;;;;3.83;3.30;;;19.20;33.40;;;;;;5097491;28;20196;-71
2023/08/19 03:42:16;;;;;;;4.20;3.33;;;19.20;33.30;;;;;;5095159;28;20198;-71
2023/08/19 03:44:42;;;;;;;4.70;2.90;;;19.20;34.50;;;;;;5096293;28;20613;-71
2023/08/19 03:47:10;;;;;;;6.07;3.40;;;19.10;34.50;;;;;;5096399;28;20435;-71
2023/08/19 03:49:36;;;;;;;7.60;4.00;;;19.00;36.20;;;;;;5096650;28;20223;-71
2023/08/19 03:52:02;;;;;;;9.90;5.10;;;18.90;38.90;;;;;;5095738;28;20896;-72
2023/08/19 03:54:27;;;;;;;9.73;4.17;;;18.90;39.30;;;;;;5095783;28;20197;-71
2023/08/19 03:56:53;;;;;;;5.90;3.93;;;18.80;40.20;;;;;;5095675;28;20177;-72
2023/08/19 03:59:19;;;;;;;7.20;3.63;;;18.80;41.10;;;;;;5095724;28;20193;-72
2023/08/19 04:01:44;;;;;;;5.77;4.83;;;18.80;41.60;;;;;;5095588;28;20174;-72
2023/08/19 04:04:10;;;;;;;5.93;4.83;;;18.80;41.90;;;;;;5095379;28;20208;-71
2023/08/19 04:06:35;;;;;;;6.13;4.60;;;18.80;42.80;;;;;;5095136;28;20185;-71
2023/08/19 04:09:01;;;;;;;5.60;4.10;;;18.80;42.40;;;;;;5094929;28;20303;-71
2023/08/19 04:11:27;;;;;;;7.40;4.57;;;18.80;42.60;;;;;;5076076;28;20662;-72
2023/08/19 04:13:52;;;;;;;5.70;4.47;;;18.70;43.30;;;;;;5094057;28;20678;-71
2023/08/19 04:16:19;;;;;;;10.70;4.37;;;18.70;42.90;;;;;;5094802;28;20186;-71
2023/08/19 04:18:44;;;;;;;7.73;4.50;;;18.70;43.10;;;;;;5094961;28;20220;-71
2023/08/19 04:21:10;;;;;;;5.33;3.60;;;18.70;43.80;;;;;;5094794;28;20431;-71
2023/08/19 04:23:36;;;;;;;8.90;4.80;;;18.70;42.60;;;;;;5095263;28;20205;-71
2023/08/19 04:26:02;;;;;;;6.50;4.63;;;18.70;41.90;;;;;;5096311;28;20209;-71
2023/08/19 04:28:28;;;;;;;6.30;4.20;;;18.70;41.20;;;;;;5095517;28;20548;-71
2023/08/19 04:31:02;;;;;;;5.80;4.10;;;18.70;41.10;;;;;;5094498;28;20418;-71
2023/08/19 04:33:27;;;;;;;6.03;3.50;;;18.70;38.90;;;;;;5095394;28;20240;-71
2023/08/19 04:35:53;;;;;;;6.10;3.87;;;18.70;38.70;;;;;;5094160;28;20781;-70
2023/08/19 04:38:21;;;;;;;4.83;3.43;;;18.70;38.70;;;;;;5094502;28;20178;-71
2023/08/19 04:40:47;;;;;;;5.53;3.97;;;18.80;37.80;;;;;;5094568;28;20585;-71
2023/08/19 04:43:13;;;;;;;4.73;3.50;;;18.80;36.70;;;;;;5093515;28;20546;-70
2023/08/19 04:45:38;;;;;;;5.80;3.50;;;18.80;36.20;;;;;;5093312;28;20205;-70
2023/08/19 04:48:05;;;;;;;4.43;2.50;;;18.80;37.00;;;;;;5092915;28;20254;-68
2023/08/19 04:50:32;;;;;;;3.70;2.77;;;18.80;36.50;;;;;;5093041;28;20173;-68
2023/08/19 04:52:58;;;;;;;13.20;3.93;;;18.90;34.90;;;;;;5092904;28;20475;-69
2023/08/19 04:55:23;;;;;;;3.60;3.20;;;19.00;33.90;;;;;;5093282;28;20519;-69
2023/08/19 04:57:49;;;;;;;5.90;3.43;;;19.00;33.70;;;;;;5093638;28;20173;-69
2023/08/19 05:00:15;;;;;;;5.40;3.80;;;19.10;33.50;;;;;;5093394;28;20208;-69
2023/08/19 05:02:41;;;;;;;4.47;3.03;;;19.10;32.60;;;;;;5092743;28;20708;-69
2023/08/19 05:05:07;;;;;;;3.37;2.60;;;19.10;32.60;;;;;;5092986;28;20451;-69
2023/08/19 05:07:32;;;;;;;4.27;2.83;;;19.20;31.70;;;;;;5092945;28;20591;-69
2023/08/19 05:09:58;;;;;;;4.33;3.20;;;19.20;32.00;;;;;;5093151;28;20407;-69
2023/08/19 05:12:23;;;;;;;3.90;2.97;;;19.20;31.70;;;;;;5092368;28;20204;-69
2023/08/19 05:14:49;;;;;;;5.53;4.00;;;19.30;30.00;;;;;;5092934;28;20204;-69
2023/08/19 05:17:15;;;;;;;4.93;3.73;;;19.30;29.70;;;;;;5096999;28;20200;-71
2023/08/19 05:19:41;;;;;;;5.23;2.90;;;19.40;29.10;;;;;;5095569;28;20419;-71
2023/08/19 05:22:07;;;;;;;5.17;3.33;;;19.40;30.00;;;;;;5096167;28;20704;-70
2023/08/19 05:24:32;;;;;;;6.47;3.20;;;19.40;30.10;;;;;;5094221;28;20569;-71
2023/08/19 05:26:59;;;;;;;4.57;2.90;;;19.60;29.20;;;;;;5094199;28;20415;-70
2023/08/19 05:29:24;;;;;;;4.77;3.40;;;19.70;29.20;;;;;;5094179;28;20177;-70
2023/08/19 05:31:50;;;;;;;4.33;2.93;;;19.90;28.10;;;;;;5092904;28;20460;-70
2023/08/19 05:34:15;;;;;;;4.77;3.70;;;20.20;27.50;;;;;;5092922;28;20242;-71
2023/08/19 05:36:41;;;;;;;9.77;4.27;;;20.70;25.20;;;;;;5093845;28;20185;-70
2023/08/19 05:39:07;;;;;;;3.97;3.30;;;21.00;23.40;;;;;;5075635;28;20181;-71
2023/08/19 05:41:33;;;;;;;4.00;3.17;;;21.20;21.80;;;;;;5093511;28;20205;-69
2023/08/19 05:43:58;;;;;;;6.20;3.23;;;21.50;21.90;;;;;;5094850;28;20802;-71
2023/08/19 05:46:24;;;;;;;4.27;2.73;;;22.10;18.80;;;;;;5093280;28;20187;-70
2023/08/19 05:48:49;;;;;;;3.90;2.90;;;24.00;13.90;;;;;;5092819;28;20176;-70
2023/08/19 05:51:15;;;;;;;4.90;3.53;;;26.40;7.10;;;;;;5092555;28;20536;-71
2023/08/19 05:53:41;;;;;;;4.27;3.80;;;28.00;1.00;;;;;;5092358;28;20189;-70
2023/08/19 05:56:06;;;;;;;3.87;3.40;;;29.40;1.00;;;;;;5092809;28;20218;-71
2023/08/19 05:58:32;;;;;;;4.63;4.23;;;30.90;1.00;;;;;;5091691;28;20264;-71
2023/08/19 06:00:59;;;;;;;5.10;4.60;;;31.80;1.00;;;;;;5092199;28;20181;-71
2023/08/19 06:03:25;;;;;;;4.93;4.53;;;32.50;1.00;;;;;;5073941;28;20446;-71
2023/08/19 06:05:51;;;;;;;5.73;5.23;;;33.70;1.00;;;;;;5092632;28;20447;-71
2023/08/19 06:08:16;;;;;;;6.53;5.77;;;34.00;1.00;;;;;;5092422;28;20650;-71
2023/08/19 06:10:44;;;;;;;6.00;5.50;;;34.50;1.00;;;;;;5092432;28;20537;-71
2023/08/19 06:13:10;;;;;;;7.90;5.20;;;35.70;1.00;;;;;;5092828;28;20686;-71
2023/08/19 06:15:36;;;;;;;5.47;4.97;;;34.70;1.00;;;;;;5074349;28;20434;-71
2023/08/19 06:18:02;;;;;;;6.23;5.63;;;35.50;1.00;;;;;;5074061;28;20415;-71
2023/08/19 06:20:27;;;;;;;5.70;5.20;;;35.40;1.00;;;;;;5092403;28;20256;-73
2023/08/19 06:22:53;;;;;;;6.10;5.60;;;36.30;1.00;;;;;;5091462;28;20266;-73
2023/08/19 06:25:18;;;;;;;8.33;5.50;;;37.10;1.00;;;;;;5092077;28;20239;-71
2023/08/19 06:27:44;;;;;;;6.87;6.27;;;37.00;1.00;;;;;;5073934;28;20204;-71
2023/08/19 06:30:11;;;;;;;6.03;5.37;;;37.30;1.00;;;;;;5091945;28;20196;-71
2023/08/19 06:32:37;;;;;;;6.77;6.10;;;38.00;1.00;;;;;;5091602;28;20189;-71
2023/08/19 06:35:03;;;;;;;7.07;5.67;;;38.30;1.00;;;;;;5091798;28;20476;-71
2023/08/19 06:37:31;;;;;;;7.87;5.80;;;39.10;1.00;;;;;;5092066;28;20178;-71
2023/08/19 06:40:04;;;;;;;5.50;5.10;;;38.70;1.00;;;;;;5092185;28;21014;-71
2023/08/19 06:42:30;;;;;;;6.40;5.90;;;39.20;1.00;;;;;;5091583;28;20447;-71
2023/08/19 06:44:59;;;;;;;6.17;5.37;;;40.10;1.00;;;;;;5091323;28;20967;-71
2023/08/19 06:47:30;;;;;;;5.77;5.37;;;39.70;1.00;;;;;;5091822;28;20464;-71
2023/08/19 06:49:55;;;;;;;6.00;5.23;;;39.50;1.00;;;;;;5091968;28;20500;-71
2023/08/19 06:52:22;;;;;;;5.83;5.20;;;39.60;1.00;;;;;;5091486;28;20944;-71
2023/08/19 06:54:48;;;;;;;6.93;6.23;;;39.90;1.00;;;;;;5091708;28;20173;-71
2023/08/19 06:57:33;;;;;;;6.73;6.23;;;39.30;1.00;;;;;;5073633;28;20438;-71
2023/08/19 07:00:13;;;;;;;5.93;5.33;;;39.80;1.00;;;;;;5070236;28;20522;-71
2023/08/19 07:02:39;;;;;;;6.27;5.83;;;40.10;1.00;;;;;;5085241;28;20450;-71
2023/08/19 07:05:15;;;;;;;5.87;5.37;;;40.20;1.00;;;;;;5091796;28;20480;-71
2023/08/19 07:07:49;;;;;;;6.00;5.40;;;40.50;1.00;;;;;;5091496;28;20451;-71
2023/08/19 07:10:18;;;;;;;5.97;5.47;;;39.70;1.00;;;;;;5093230;28;20403;-71
2023/08/19 07:12:44;;;;;;;7.37;6.63;;;40.40;1.00;;;;;;5095187;28;20423;-71
2023/08/19 07:15:14;;;;;;;8.80;6.60;;;41.40;1.00;;;;;;5095202;28;20426;-71
2023/08/19 07:17:47;;;;;;;6.10;5.70;;;42.00;1.00;;;;;;5077104;28;20415;-71
2023/08/19 07:20:17;;;;;;;6.30;5.20;;;42.20;1.00;;;;;;5095176;28;20407;-71
2023/08/19 07:22:44;;;;;;;6.43;5.93;;;41.90;1.00;;;;;;5094990;28;20955;-71
2023/08/19 07:25:10;;;;;;;8.03;6.33;;;42.60;1.00;;;;;;5094921;28;20975;-71
2023/08/19 07:27:36;;;;;;;5.80;5.30;;;41.90;1.00;;;;;;5095073;28;20423;-71
2023/08/19 07:30:03;;;;;;;12.20;6.50;;;41.20;1.00;;;;;;5076731;28;20514;-71
2023/08/19 07:32:31;;;;;;;6.90;5.50;;;41.70;1.00;;;;;;5094677;28;20924;-71
2023/08/19 07:34:57;;;;;;;6.07;5.57;;;41.60;1.00;;;;;;5090578;28;20465;-71
2023/08/19 07:37:23;;;;;;;6.00;5.43;;;40.90;1.00;;;;;;5094343;28;20419;-71
2023/08/19 07:39:49;;;;;;;6.60;6.10;;;41.10;1.00;;;;;;5094622;28;20312;-71
2023/08/19 07:42:15;;;;;;;6.50;5.90;;;40.80;1.00;;;;;;5094461;28;20522;-71
2023/08/19 07:44:40;;;;;;;6.40;5.80;;;40.20;1.00;;;;;;5095091;28;20458;-71
2023/08/19 07:47:06;;;;;;;6.30;5.80;;;39.60;1.00;;;;;;5094835;28;20174;-71
2023/08/19 07:49:31;;;;;;;6.73;5.97;;;38.50;1.00;;;;;;5094271;28;20177;-71
2023/08/19 07:51:57;;;;;;;10.13;6.90;;;37.30;1.00;;;;;;5094710;28;20176;-71
2023/08/19 07:54:23;;;;;;;9.90;6.10;;;35.20;1.00;;;;;;5076272;28;20201;-71
2023/08/19 07:56:48;;;;;;;5.87;5.37;;;34.20;1.00;;;;;;5094509;28;20173;-70
2023/08/19 07:59:14;;;;;;;5.97;5.47;;;33.60;1.00;;;;;;5076551;28;20209;-71
2023/08/19 08:01:40;;;;;;;6.67;5.83;;;33.30;1.00;;;;;;5094324;28;20716;-71
2023/08/19 08:04:05;;;;;;;7.27;5.40;;;33.60;1.00;;;;;;5094143;28;20602;-71
2023/08/19 08:06:31;;;;;;;6.90;6.13;;;34.90;1.00;;;;;;5094259;28;20174;-71
2023/08/19 08:08:56;;;;;;;7.33;5.80;;;35.20;1.00;;;;;;5093844;28;20186;-71
2023/08/19 08:11:22;;;;;;;6.23;5.67;;;35.10;1.00;;;;;;5094229;28;20207;-71
2023/08/19 08:13:47;;;;;;;6.63;6.03;;;35.50;1.00;;;;;;5093943;28;20565;-70
2023/08/19 08:16:13;;;;;;;6.53;5.97;;;35.60;1.00;;;;;;5094244;28;20184;-71
2023/08/19 08:18:39;;;;;;;5.50;5.03;;;37.00;1.00;;;;;;5094150;28;20174;-71
2023/08/19 08:21:04;;;;;;;7.90;5.73;;;39.00;1.00;;;;;;5093290;28;20637;-71
2023/08/19 08:23:30;;;;;;;6.40;5.50;;;39.90;1.00;;;;;;5093704;28;20230;-71
2023/08/19 08:25:55;;;;;;;5.93;5.40;;;40.30;1.00;;;;;;5094125;28;20205;-71
2023/08/19 08:28:21;;;;;;;6.80;6.30;;;41.70;1.00;;;;;;5094080;28;20181;-71
2023/08/19 08:30:47;;;;;;;5.73;5.23;;;41.20;1.00;;;;;;5093861;28;20181;-71
2023/08/19 08:33:12;;;;;;;7.43;6.73;;;41.50;1.00;;;;;;5093691;28;20590;-71
2023/08/19 08:35:38;;;;;;;6.47;5.87;;;41.60;1.00;;;;;;5093766;28;20566;-71
2023/08/19 08:38:04;;;;;;;7.73;7.00;;;41.90;1.00;;;;;;5093792;28;20185;-71
2023/08/19 08:40:34;;;;;;;6.80;6.07;;;42.70;1.00;;;;;;5093950;28;20184;-71
2023/08/19 08:43:02;;;;;;;11.30;6.10;;;42.90;1.00;;;;;;5093122;28;20300;-71
2023/08/19 08:45:31;;;;;;;11.83;6.80;;;42.30;1.00;;;;;;5093474;28;20469;-71
2023/08/19 08:47:56;;;;;;;6.90;6.20;;;42.80;1.00;;;;;;5093550;28;20419;-70
2023/08/19 08:50:22;;;;;;;7.03;6.47;;;43.70;1.00;;;;;;5093705;28;20415;-71
2023/08/19 08:52:49;;;;;;;7.47;5.97;;;44.10;1.00;;;;;;5094169;28;20209;-71
2023/08/19 08:55:15;;;;;;;6.13;5.63;;;45.30;1.00;;;;;;5093816;28;20192;-71
2023/08/19 08:57:41;;;;;;;6.87;6.23;;;46.30;1.00;;;;;;5093439;28;20411;-71
2023/08/19 09:00:08;;;;;;;6.90;5.60;;;45.70;1.00;;;;;;5093464;28;20238;-71
2023/08/19 09:02:35;;;;;;;7.40;5.63;;;43.80;1.00;;;;;;5092810;28;20658;-71
2023/08/19 09:05:05;;;;;;;5.80;5.30;;;41.60;1.00;;;;;;5092981;28;20922;-71
2023/08/19 09:07:37;;;;;;;6.20;5.60;;;39.50;1.00;;;;;;5093438;28;20411;-71
2023/08/19 09:10:04;;;;;;;7.30;6.73;;;37.30;1.00;;;;;;5093312;28;20423;-71
2023/08/19 09:12:34;;;;;;;6.87;6.27;;;36.20;1.00;;;;;;5092751;28;20848;-71
2023/08/19 09:15:03;;;;;;;8.67;6.23;;;35.40;1.00;;;;;;5092884;28;20828;-71
2023/08/19 09:17:33;;;;;;;6.43;5.57;;;34.80;1.90;;;;;;5092528;28;20435;-71
2023/08/19 09:20:00;;;;;;;6.93;6.33;;;34.30;1.80;;;;;;5092882;28;20419;-71
2023/08/19 09:22:25;;;;;;;7.00;5.67;;;33.70;1.00;;;;;;5074306;28;20475;-71
2023/08/19 09:24:54;;;;;;;6.10;5.63;;;33.40;1.00;;;;;;5092852;28;20497;-71
2023/08/19 09:27:26;;;;;;;14.73;6.00;;;33.10;3.50;;;;;;5092479;28;20175;-71
2023/08/19 09:29:52;;;;;;;6.03;5.53;;;32.90;4.10;;;;;;5092819;28;20787;-70
2023/08/19 09:32:33;;;;;;;7.63;5.87;;;32.90;3.20;;;;;;5092327;28;20407;-71
2023/08/19 09:35:08;;;;;;;5.63;5.23;;;32.70;3.20;;;;;;5092780;28;20261;-71
2023/08/19 09:37:35;;;;;;;5.93;5.40;;;32.60;3.10;;;;;;5092643;28;20418;-71
2023/08/19 09:40:10;;;;;;;8.60;6.50;;;32.60;2.50;;;;;;5092438;28;20423;-71
2023/08/19 09:42:37;;;;;;;6.53;5.97;;;32.70;2.90;;;;;;5092092;28;20549;-71
2023/08/19 09:45:04;;;;;;;7.03;6.43;;;32.70;2.20;;;;;;5092417;28;20839;-70
2023/08/19 09:47:31;;;;;;;6.67;5.40;;;32.80;1.90;;;;;;5074805;28;20841;-71
2023/08/19 09:49:57;;;;;;;7.03;6.40;;;32.70;2.30;;;;;;5092400;28;20457;-71
2023/08/19 09:52:23;;;;;;;7.60;5.60;;;32.60;2.10;;;;;;5091879;28;20956;-71
2023/08/19 09:54:53;;;;;;;6.40;5.77;;;32.80;2.30;;;;;;5092258;28;20529;-70
2023/08/19 09:57:34;;;;;;;6.50;5.53;;;33.00;1.10;;;;;;5092295;28;20189;-69
2023/08/19 10:00:01;;;;;;;19.27;9.03;;;33.00;1.00;;;;;;5092349;28;20436;-70
2023/08/19 10:02:28;;;;;;;6.53;5.90;;;33.10;1.00;;;;;;5073836;28;20541;-70
2023/08/19 10:04:55;;;;;;;5.57;5.17;;;33.20;1.00;;;;;;5092009;28;20553;-69
2023/08/19 10:07:29;;;;;;;6.57;5.20;;;33.30;1.00;;;;;;5092124;28;20439;-70
2023/08/19 10:09:55;;;;;;;10.17;5.20;;;33.50;1.00;;;;;;5092206;28;20399;-69
2023/08/19 10:12:22;;;;;;;5.70;5.20;;;33.60;1.00;;;;;;5091936;28;20782;-69
2023/08/19 10:14:51;;;;;;;6.90;5.50;;;33.60;1.00;;;;;;5090311;28;20189;-69
2023/08/19 10:17:19;;;;;;;6.00;5.50;;;33.80;1.00;;;;;;5091715;28;20431;-69
2023/08/19 10:19:50;;;;;;;5.67;5.20;;;33.90;1.00;;;;;;5092604;28;20411;-70
2023/08/19 10:22:17;;;;;;;6.30;5.80;;;34.00;1.00;;;;;;5091771;28;20931;-69
2023/08/19 10:24:43;;;;;;;6.30;5.70;;;34.00;1.00;;;;;;5092034;28;20512;-69
2023/08/19 10:27:19;;;;;;;7.37;5.80;;;33.70;1.00;;;;;;5091959;28;20411;-70
2023/08/19 10:29:48;;;;;;;6.10;5.60;;;33.80;1.00;;;;;;5092028;28;20915;-70
2023/08/19 10:32:31;;;;;;;6.73;6.13;;;33.90;1.00;;;;;;5091388;28;20908;-70
2023/08/19 10:35:08;;;;;;;5.70;5.30;;;34.10;1.00;;;;;;5092265;28;20987;-70
2023/08/19 10:37:48;;;;;;;8.83;5.53;;;34.20;1.00;;;;;;5091974;28;20410;-70
2023/08/19 10:40:20;;;;;;;6.43;5.70;;;34.40;1.00;;;;;;5092017;28;20423;-70
2023/08/19 10:43:02;;;;;;;6.43;5.90;;;34.50;1.00;;;;;;5091518;28;20470;-70
2023/08/19 10:45:35;;;;;;;4.93;4.63;;;34.50;1.00;;;;;;5094355;28;20837;-70
2023/08/19 10:48:02;;;;;;;7.43;6.13;;;34.50;1.00;;;;;;5095991;28;20469;-70
2023/08/19 10:50:34;;;;;;;6.10;5.70;;;34.60;1.00;;;;;;5095736;28;20468;-70
2023/08/19 10:53:01;;;;;;;6.43;5.87;;;34.60;1.00;;;;;;5075508;28;20440;-70
2023/08/19 10:55:27;;;;;;;6.07;5.57;;;34.50;1.00;;;;;;5075653;28;20921;-70
2023/08/19 10:57:53;;;;;;;6.67;6.17;;;34.50;1.00;;;;;;5075802;28;20507;-70
2023/08/19 11:00:23;;;;;;;7.07;6.00;;;34.50;1.00;;;;;;5075636;28;20185;-70
2023/08/19 11:02:49;;;;;;;5.67;5.27;;;34.60;1.00;;;;;;5075354;28;20436;-70
2023/08/19 11:05:25;;;;;;;6.73;6.10;;;34.80;1.00;;;;;;5095771;28;20465;-70
2023/08/19 11:07:51;;;;;;;6.13;5.63;;;35.10;1.00;;;;;;5096264;28;20891;-70
2023/08/19 11:10:16;;;;;;;6.97;6.10;;;35.10;1.00;;;;;;5095255;28;20427;-69
2023/08/19 11:12:45;;;;;;;5.67;5.27;;;35.10;1.00;;;;;;5095177;28;20446;-70
2023/08/19 11:15:11;;;;;;;5.57;5.07;;;35.20;1.00;;;;;;5095798;28;20185;-70
2023/08/19 11:17:36;;;;;;;10.10;6.03;;;35.20;1.00;;;;;;5095631;28;20899;-70
2023/08/19 11:20:09;;;;;;;5.77;5.37;;;35.40;1.00;;;;;;5095820;28;20185;-70
2023/08/19 11:22:48;;;;;;;6.53;5.80;;;35.50;1.00;;;;;;5077608;28;20197;-76
2023/08/19 11:25:15;;;;;;;6.23;5.63;;;35.40;1.00;;;;;;5076989;28;20486;-71
2023/08/19 11:27:41;;;;;;;8.20;5.43;;;35.30;1.00;;;;;;5095810;28;20415;-71
2023/08/19 11:30:09;;;;;;;5.70;5.30;;;35.40;1.00;;;;;;5095933;28;20407;-71
2023/08/19 11:32:35;;;;;;;5.90;5.40;;;35.30;1.00;;;;;;5094860;28;20446;-72
2023/08/19 11:35:01;;;;;;;5.27;4.80;;;35.40;1.00;;;;;;5095346;28;20775;-72
2023/08/19 11:37:30;;;;;;;6.23;5.73;;;35.50;1.00;;;;;;5095436;28;20182;-72
2023/08/19 11:39:56;;;;;;;6.30;5.87;;;35.40;1.00;;;;;;5095503;28;20836;-72
2023/08/19 11:42:22;;;;;;;5.47;5.07;;;35.40;1.00;;;;;;5095584;28;20451;-72
2023/08/19 11:44:48;;;;;;;8.33;6.00;;;35.40;1.00;;;;;;5077418;28;20197;-72
2023/08/19 11:47:14;;;;;;;7.03;5.73;;;35.40;1.00;;;;;;5095347;28;20185;-73
2023/08/19 11:49:42;;;;;;;7.80;5.57;;;35.60;1.00;;;;;;5095423;28;20411;-73
2023/08/19 11:52:08;;;;;;;5.40;5.00;;;35.70;1.00;;;;;;5095584;28;20188;-72
2023/08/19 11:54:34;;;;;;;6.10;5.60;;;35.70;1.00;;;;;;5103141;28;20426;-72
2023/08/19 11:57:02;;;;;;;5.67;5.27;;;35.90;1.00;;;;;;5106782;28;20195;-71
2023/08/19 11:59:32;;;;;;;5.77;5.27;;;36.20;1.00;;;;;;5094805;28;20177;-72
2023/08/19 12:02:03;;;;;;;5.60;5.13;;;36.50;1.00;;;;;;5094235;28;20502;-73
2023/08/19 12:04:31;;;;;;;5.13;4.70;;;36.70;1.00;;;;;;5076408;28;20462;-72
2023/08/19 12:06:56;;;;;;;5.83;5.10;;;36.50;1.00;;;;;;5094862;28;20420;-72
2023/08/19 12:09:33;;;;;;;5.20;4.80;;;36.60;1.00;;;;;;5075891;28;20466;-71
2023/08/19 12:12:11;;;;;;;5.50;5.10;;;36.40;1.00;;;;;;5094389;28;20250;-72
2023/08/19 12:14:38;;;;;;;5.50;5.10;;;36.40;1.00;;;;;;5094279;28;20446;-72
2023/08/19 12:17:07;;;;;;;5.57;5.17;;;36.60;1.00;;;;;;5094456;28;20407;-72
2023/08/19 12:19:33;;;;;;;5.67;5.00;;;36.60;1.00;;;;;;5094422;28;20427;-73
2023/08/19 12:21:59;;;;;;;6.07;5.50;;;36.60;1.00;;;;;;5094078;28;20439;-73
2023/08/19 12:24:24;;;;;;;5.60;5.10;;;36.60;1.00;;;;;;5094452;28;20474;-72
2023/08/19 12:26:53;;;;;;;5.80;4.60;;;36.70;1.00;;;;;;5094400;28;20201;-71
2023/08/19 12:29:19;;;;;;;5.10;4.70;;;36.80;1.00;;;;;;5094227;28;20173;-73
2023/08/19 12:31:44;;;;;;;6.10;4.80;;;36.80;1.00;;;;;;5075495;28;20885;-73
2023/08/19 12:34:11;;;;;;;5.17;4.77;;;36.80;1.00;;;;;;5093936;28;20216;-72
2023/08/19 12:36:40;;;;;;;6.40;5.90;;;36.90;1.00;;;;;;5094063;28;20170;-73
2023/08/19 12:39:05;;;;;;;5.17;4.80;;;36.90;1.00;;;;;;5075824;28;20450;-73
2023/08/19 12:41:31;;;;;;;5.30;4.93;;;36.70;1.00;;;;;;5093613;28;20451;-71
2023/08/19 12:43:56;;;;;;;5.97;4.97;;;36.80;1.00;;;;;;5093418;28;20258;-72
2023/08/19 12:46:22;;;;;;;5.13;4.80;;;36.90;1.00;;;;;;5093727;28;20209;-72
2023/08/19 12:48:54;;;;;;;5.83;5.43;;;36.90;1.00;;;;;;5093684;28;20246;-72
2023/08/19 12:51:20;;;;;;;5.37;4.90;;;37.20;1.00;;;;;;5093786;28;20178;-72
2023/08/19 12:53:46;;;;;;;14.73;5.90;;;37.40;1.00;;;;;;5093891;28;20495;-72